Time;durP1;ratioP1;P1;durP2;ratioP2;P2;SDS_P1;SDS_P2;PMS_P1;PMS_P2;Temp;Humidity;BMP_temperature;BMP_pressure;BME280_temperature;BME280_humidity;BME280_pressure;Samples;Min_cycle;Max_cycle;Signal;HPM_P1;HPM_P2
2022/05/16 00:01:29;;;;;;;10.20;2.97;;;;;;;;;;5020706;28;20209;-52
2022/05/16 00:03:56;;;;;;;15.45;3.45;;;;;;;;;;5018569;28;20137;-50
2022/05/16 00:06:23;;;;;;;8.55;2.92;;;;;;;;;;5021281;28;20049;-52
2022/05/16 00:08:57;;;;;;;5.22;2.97;;;;;;;;;;5023427;28;20084;-52
2022/05/16 00:11:24;;;;;;;10.90;3.72;;;;;;;;;;5019278;28;20092;-50
2022/05/16 00:13:50;;;;;;;12.90;3.47;;;;;;;;;;5016470;28;20109;-51
2022/05/16 00:16:23;;;;;;;15.05;4.00;;;;;;;;;;5024316;28;20081;-55
2022/05/16 00:18:51;;;;;;;10.00;3.47;;;;;;;;;;5019245;28;20649;-54
2022/05/16 00:21:18;;;;;;;12.85;3.47;;;;;;;;;;5035590;28;20057;-54
2022/05/16 00:23:51;;;;;;;16.02;4.70;;;;;;;;;;5041796;28;20072;-54
2022/05/16 00:26:18;;;;;;;11.75;2.90;;;;;;;;;;5039407;28;20096;-52
2022/05/16 00:28:44;;;;;;;12.00;2.85;;;;;;;;;;5040956;28;20504;-55
2022/05/16 00:31:17;;;;;;;11.02;3.13;;;;;;;;;;5037675;28;20053;-55
2022/05/16 00:33:44;;;;;;;6.30;3.05;;;;;;;;;;5041007;28;20049;-52
2022/05/16 00:36:10;;;;;;;11.30;2.92;;;;;;;;;;5040448;28;20080;-47
2022/05/16 00:38:43;;;;;;;6.43;3.40;;;;;;;;;;5041276;28;20073;-52
2022/05/16 00:41:10;;;;;;;12.32;3.67;;;;;;;;;;5036175;28;20049;-54
2022/05/16 00:43:47;;;;;;;19.48;4.68;;;;;;;;;;5037315;28;20096;-54
2022/05/16 00:46:20;;;;;;;16.85;4.03;;;;;;;;;;5038378;28;20077;-52
2022/05/16 00:48:47;;;;;;;14.45;4.25;;;;;;;;;;5040203;28;20096;-51
2022/05/16 00:51:23;;;;;;;7.27;3.00;;;;;;;;;;5042345;28;20395;-53
2022/05/16 00:53:58;;;;;;;12.30;3.80;;;;;;;;;;5037225;28;20340;-53
2022/05/16 00:56:24;;;;;;;14.98;3.83;;;;;;;;;;5040162;28;20077;-47
2022/05/16 00:58:51;;;;;;;9.87;3.60;;;;;;;;;;5035830;28;20496;-53
2022/05/16 01:07:06;;;;;;;10.82;3.67;;;;;;;;;;5035032;28;20077;-54
2022/05/16 01:09:33;;;;;;;8.52;3.20;;;;;;;;;;5039506;28;20076;-52
2022/05/16 01:11:59;;;;;;;15.35;4.50;;;;;;;;;;5038212;28;20045;-50
2022/05/16 01:14:40;;;;;;;10.85;3.92;;;;;;;;;;5036349;28;20081;-44
2022/05/16 01:17:06;;;;;;;13.88;3.83;;;;;;;;;;5034515;28;20087;-53
2022/05/16 01:19:46;;;;;;;14.68;3.80;;;;;;;;;;5038771;28;20049;-55
2022/05/16 01:22:21;;;;;;;14.52;4.22;;;;;;;;;;5039305;28;20042;-54
2022/05/16 01:24:55;;;;;;;11.75;3.97;;;;;;;;;;5038038;28;20132;-56
2022/05/16 01:27:22;;;;;;;13.05;3.45;;;;;;;;;;5037556;28;20115;-55
2022/05/16 01:29:49;;;;;;;17.10;4.88;;;;;;;;;;5037184;28;20053;-55
2022/05/16 01:32:22;;;;;;;27.88;5.60;;;;;;;;;;5038356;28;20080;-49
2022/05/16 01:34:49;;;;;;;15.30;4.88;;;;;;;;;;5039418;28;20099;-50
2022/05/16 01:37:15;;;;;;;26.38;5.72;;;;;;;;;;5037938;28;20085;-52
2022/05/16 01:39:48;;;;;;;20.35;5.07;;;;;;;;;;5037601;28;20455;-50
2022/05/16 01:42:15;;;;;;;12.73;4.20;;;;;;;;;;5037033;28;20903;-49
2022/05/16 01:44:41;;;;;;;16.88;4.57;;;;;;;;;;5038124;28;20060;-45
2022/05/16 01:47:14;;;;;;;10.30;3.30;;;;;;;;;;5038997;28;20099;-48
2022/05/16 01:49:41;;;;;;;10.15;3.50;;;;;;;;;;5039143;28;20188;-48
2022/05/16 01:52:07;;;;;;;11.10;3.22;;;;;;;;;;5037326;28;20081;-47
2022/05/16 01:54:41;;;;;;;13.68;3.75;;;;;;;;;;5038628;28;20060;-50
2022/05/16 01:57:07;;;;;;;9.80;3.55;;;;;;;;;;5039073;28;20072;-49
2022/05/16 01:59:33;;;;;;;8.52;3.50;;;;;;;;;;5035568;28;20119;-47
2022/05/16 02:02:06;;;;;;;14.73;3.70;;;;;;;;;;5039721;28;20084;-47
2022/05/16 02:04:33;;;;;;;8.93;3.97;;;;;;;;;;5036115;28;20537;-50
2022/05/16 02:06:59;;;;;;;9.73;3.70;;;;;;;;;;5036383;28;20509;-52
2022/05/16 02:09:32;;;;;;;12.02;3.78;;;;;;;;;;5034502;28;20080;-51
2022/05/16 02:11:59;;;;;;;9.77;3.58;;;;;;;;;;5037933;28;20130;-55
2022/05/16 02:14:25;;;;;;;8.02;3.42;;;;;;;;;;5038158;28;20049;-53
2022/05/16 02:16:58;;;;;;;13.65;3.70;;;;;;;;;;5037340;28;20084;-51
2022/05/16 02:19:25;;;;;;;12.70;3.60;;;;;;;;;;5035307;28;20048;-51
2022/05/16 02:24:43;;;;;;;8.23;3.67;;;;;;;;;;5036020;28;20130;-53
2022/05/16 02:27:11;;;;;;;15.07;4.07;;;;;;;;;;5037276;28;20095;-50
2022/05/16 02:29:37;;;;;;;10.40;3.50;;;;;;;;;;5036228;28;20100;-51
2022/05/16 02:32:11;;;;;;;12.85;3.92;;;;;;;;;;5037618;28;20104;-53
2022/05/16 02:34:37;;;;;;;12.25;3.60;;;;;;;;;;5037453;28;20079;-52
2022/05/16 02:37:05;;;;;;;14.18;3.97;;;;;;;;;;5038152;28;20049;-47
2022/05/16 02:39:38;;;;;;;11.07;4.18;;;;;;;;;;5035818;28;20119;-47
2022/05/16 02:42:05;;;;;;;10.27;3.80;;;;;;;;;;5036151;28;20504;-46
2022/05/16 02:44:31;;;;;;;11.15;3.88;;;;;;;;;;5038051;28;20077;-46
2022/05/16 02:47:05;;;;;;;14.30;4.00;;;;;;;;;;5033813;28;20454;-48
2022/05/16 02:49:32;;;;;;;13.40;4.15;;;;;;;;;;5036713;28;20143;-50
2022/05/16 02:51:58;;;;;;;15.55;4.18;;;;;;;;;;5038070;28;20171;-54
2022/05/16 02:54:31;;;;;;;18.92;4.97;;;;;;;;;;5036400;28;20130;-50
2022/05/16 02:56:58;;;;;;;16.90;4.30;;;;;;;;;;5038977;28;20188;-46
2022/05/16 02:59:27;;;;;;;16.52;5.45;;;;;;;;;;5031376;28;20045;-45
2022/05/16 03:02:00;;;;;;;14.82;4.85;;;;;;;;;;5036997;28;20519;-49
2022/05/16 03:04:27;;;;;;;12.18;4.70;;;;;;;;;;5037613;28;20049;-45
2022/05/16 03:06:54;;;;;;;14.63;4.88;;;;;;;;;;5035747;28;20085;-44
2022/05/16 03:09:27;;;;;;;20.30;4.93;;;;;;;;;;5041375;28;20665;-52
2022/05/16 03:11:54;;;;;;;11.13;3.33;;;;;;;;;;5039364;28;20107;-50
2022/05/16 03:14:21;;;;;;;7.33;3.07;;;;;;;;;;5041383;28;20541;-50
2022/05/16 03:16:54;;;;;;;11.55;3.83;;;;;;;;;;5034483;28;20097;-46
2022/05/16 03:19:21;;;;;;;12.32;3.97;;;;;;;;;;5040477;28;20075;-51
2022/05/16 03:21:47;;;;;;;11.23;4.20;;;;;;;;;;5038766;28;20132;-52
2022/05/16 03:24:20;;;;;;;13.18;3.78;;;;;;;;;;5041570;28;20080;-52
2022/05/16 03:26:47;;;;;;;10.32;3.88;;;;;;;;;;5037814;28;20054;-49
2022/05/16 03:29:14;;;;;;;7.72;4.05;;;;;;;;;;5040034;28;20147;-45
2022/05/16 03:31:47;;;;;;;9.57;4.82;;;;;;;;;;5041803;28;20389;-56
2022/05/16 03:34:14;;;;;;;12.13;4.18;;;;;;;;;;5040067;28;20061;-52
2022/05/16 03:36:40;;;;;;;8.20;4.07;;;;;;;;;;5041131;28;20072;-53
2022/05/16 03:41:58;;;;;;;4.80;2.75;;;;;;;;;;5038765;28;20087;-54
2022/05/16 03:44:32;;;;;;;4.32;2.08;;;;;;;;;;5045357;28;20124;-54
2022/05/16 03:46:59;;;;;;;;;;;;;;;;;;5040748;28;20562;-52
2022/05/16 03:49:25;;;;;;;5.13;1.65;;;;;;;;;;5039365;28;19921;-56
2022/05/16 03:51:59;;;;;;;2.97;1.73;;;;;;;;;;5041419;28;20519;-55
2022/05/16 03:54:26;;;;;;;3.28;1.38;;;;;;;;;;5041389;28;20334;-55
2022/05/16 03:56:52;;;;;;;1.58;1.23;;;;;;;;;;5037662;28;20136;-56
2022/05/16 03:59:25;;;;;;;1.77;1.13;;;;;;;;;;5039030;28;20080;-53
2022/05/16 04:01:52;;;;;;;3.85;1.15;;;;;;;;;;5036796;28;20468;-54
2022/05/16 04:04:18;;;;;;;2.30;1.00;;;;;;;;;;5038692;28;20041;-56
2022/05/16 04:06:51;;;;;;;4.25;1.13;;;;;;;;;;5037335;28;20583;-53
2022/05/16 04:09:18;;;;;;;1.47;0.70;;;;;;;;;;5040759;28;20053;-55
2022/05/16 04:11:44;;;;;;;3.63;0.90;;;;;;;;;;5039739;28;20081;-52
2022/05/16 04:14:18;;;;;;;1.13;0.90;;;;;;;;;;5038509;28;20077;-54
2022/05/16 04:16:44;;;;;;;2.28;0.82;;;;;;;;;;5040099;28;20060;-55
2022/05/16 04:19:10;;;;;;;0.93;0.70;;;;;;;;;;5039628;28;20099;-51
2022/05/16 04:21:50;;;;;;;1.02;0.40;;;;;;;;;;5037002;28;20064;-50
2022/05/16 04:24:16;;;;;;;1.10;0.77;;;;;;;;;;5037847;28;20087;-49
2022/05/16 04:26:43;;;;;;;1.13;0.73;;;;;;;;;;5040414;28;20401;-56
2022/05/16 04:29:16;;;;;;;0.68;0.52;;;;;;;;;;5039897;28;20069;-45
2022/05/16 04:31:43;;;;;;;1.42;0.70;;;;;;;;;;5039911;28;20084;-45
2022/05/16 04:34:09;;;;;;;0.82;0.40;;;;;;;;;;5040822;28;20057;-48
2022/05/16 04:36:43;;;;;;;1.10;0.60;;;;;;;;;;5038033;28;20158;-47
2022/05/16 04:39:09;;;;;;;4.33;0.70;;;;;;;;;;5036888;28;20115;-48
2022/05/16 04:44:27;;;;;;;1.48;0.70;;;;;;;;;;5039554;28;20081;-50
2022/05/16 04:46:54;;;;;;;1.80;0.70;;;;;;;;;;5035673;28;20085;-47
2022/05/16 04:49:20;;;;;;;1.38;0.80;;;;;;;;;;5036692;28;20077;-47
2022/05/16 04:51:53;;;;;;;0.50;0.50;;;;;;;;;;5036881;28;20076;-49
2022/05/16 04:54:20;;;;;;;1.95;0.70;;;;;;;;;;5038943;28;20080;-49
2022/05/16 04:56:46;;;;;;;2.08;0.65;;;;;;;;;;5039120;28;20053;-52
2022/05/16 04:59:21;;;;;;;1.48;0.82;;;;;;;;;;5039113;28;20087;-44
2022/05/16 05:01:48;;;;;;;3.25;1.17;;;;;;;;;;5038478;28;20490;-49
2022/05/16 05:04:15;;;;;;;1.58;0.52;;;;;;;;;;5036643;28;20461;-52
2022/05/16 05:06:48;;;;;;;0.30;0.30;;;;;;;;;;5035441;28;20049;-49
2022/05/16 05:09:15;;;;;;;0.32;0.32;;;;;;;;;;5036186;28;20076;-44
2022/05/16 05:14:39;;;;;;;1.67;0.60;;;;;;;;;;5039353;28;20056;-49
2022/05/16 05:17:07;;;;;;;2.40;1.00;;;;;;;;;;5037778;28;20100;-46
2022/05/16 05:19:34;;;;;;;2.47;0.52;;;;;;;;;;5037903;28;20150;-48
2022/05/16 05:22:21;;;;;;;1.33;0.80;;;;;;;;;;5037605;28;20084;-50
2022/05/16 05:24:47;;;;;;;0.88;0.80;;;;;;;;;;5036911;28;20100;-53
2022/05/16 05:27:20;;;;;;;3.53;0.70;;;;;;;;;;5035055;28;20041;-56
2022/05/16 05:29:51;;;;;;;1.20;0.80;;;;;;;;;;5039409;28;20115;-54
2022/05/16 05:32:17;;;;;;;0.88;0.65;;;;;;;;;;5036210;28;20076;-52
2022/05/16 05:34:51;;;;;;;1.50;0.70;;;;;;;;;;5036436;28;20080;-56
2022/05/16 05:37:17;;;;;;;2.08;0.80;;;;;;;;;;5036647;28;20174;-60
2022/05/16 05:39:43;;;;;;;1.63;0.77;;;;;;;;;;5038808;28;20072;-55
2022/05/16 05:42:16;;;;;;;4.30;0.80;;;;;;;;;;5039006;28;20056;-51
2022/05/16 05:44:43;;;;;;;1.42;0.60;;;;;;;;;;5039244;28;20093;-52
2022/05/16 05:47:10;;;;;;;0.98;0.55;;;;;;;;;;5040156;28;20518;-52
2022/05/16 05:49:43;;;;;;;0.93;0.47;;;;;;;;;;5036323;28;20133;-50
2022/05/16 05:52:10;;;;;;;1.70;0.70;;;;;;;;;;5038223;28;20040;-48
2022/05/16 05:54:42;;;;;;;1.55;0.60;;;;;;;;;;5037398;28;20140;-54
2022/05/16 05:57:17;;;;;;;4.55;0.70;;;;;;;;;;5037241;28;20486;-49
2022/05/16 05:59:43;;;;;;;1.70;0.68;;;;;;;;;;5039218;28;20107;-48
2022/05/16 06:02:10;;;;;;;1.50;0.70;;;;;;;;;;5036324;28;20053;-51
2022/05/16 06:04:45;;;;;;;1.95;0.60;;;;;;;;;;5037989;28;20106;-52
2022/05/16 06:07:12;;;;;;;1.92;0.50;;;;;;;;;;5038223;28;20048;-55
2022/05/16 06:09:38;;;;;;;2.58;0.60;;;;;;;;;;5038091;28;20080;-55
2022/05/16 06:12:12;;;;;;;0.73;0.55;;;;;;;;;;5035727;28;20072;-55
2022/05/16 06:14:39;;;;;;;0.90;0.52;;;;;;;;;;5035648;28;20155;-53
2022/05/16 06:17:05;;;;;;;1.63;0.80;;;;;;;;;;5036705;28;20591;-55
2022/05/16 06:19:38;;;;;;;1.35;0.77;;;;;;;;;;5037892;28;20056;-48
2022/05/16 06:22:19;;;;;;;1.20;0.60;;;;;;;;;;5032775;28;20061;-44
2022/05/16 06:27:37;;;;;;;2.15;0.50;;;;;;;;;;5037255;28;20077;-48
2022/05/16 06:30:11;;;;;;;3.72;0.73;;;;;;;;;;5036328;28;20073;-50
2022/05/16 06:32:37;;;;;;;1.52;0.70;;;;;;;;;;5038780;28;20118;-48
2022/05/16 06:35:04;;;;;;;0.60;0.60;;;;;;;;;;5036472;28;20139;-46
2022/05/16 06:37:38;;;;;;;0.85;0.75;;;;;;;;;;5038298;28;20085;-55
2022/05/16 06:40:05;;;;;;;3.08;0.63;;;;;;;;;;5039726;28;20049;-51
2022/05/16 06:42:31;;;;;;;2.83;0.75;;;;;;;;;;5036463;28;20400;-46
2022/05/16 06:45:05;;;;;;;1.48;0.55;;;;;;;;;;5037470;28;20058;-46
2022/05/16 06:47:32;;;;;;;1.00;0.40;;;;;;;;;;5043027;28;20088;-49
2022/05/16 06:49:58;;;;;;;3.28;0.70;;;;;;;;;;5039654;28;20138;-49
2022/05/16 06:52:31;;;;;;;1.50;0.52;;;;;;;;;;5041367;28;20045;-46
2022/05/16 06:54:58;;;;;;;3.00;0.60;;;;;;;;;;5039213;28;20073;-51
2022/05/16 06:57:24;;;;;;;1.87;0.60;;;;;;;;;;5038896;28;20049;-55
2022/05/16 06:59:57;;;;;;;2.53;1.17;;;;;;;;;;5042876;28;20053;-49
2022/05/16 07:02:24;;;;;;;2.30;0.93;;;;;;;;;;5043669;28;20077;-50
2022/05/16 07:04:51;;;;;;;1.33;0.60;;;;;;;;;;5040373;28;20076;-50
2022/05/16 07:07:24;;;;;;;2.65;0.63;;;;;;;;;;5043549;28;20531;-52
2022/05/16 07:09:51;;;;;;;1.05;0.43;;;;;;;;;;5039573;28;20081;-50
2022/05/16 07:12:17;;;;;;;0.98;0.70;;;;;;;;;;5039291;28;20064;-49
2022/05/16 07:14:50;;;;;;;2.95;0.68;;;;;;;;;;5038087;28;20073;-47
2022/05/16 07:17:17;;;;;;;3.67;0.80;;;;;;;;;;5039768;28;20053;-51
2022/05/16 07:19:46;;;;;;;1.20;0.95;;;;;;;;;;5042570;28;20037;-47
2022/05/16 07:22:26;;;;;;;0.80;0.57;;;;;;;;;;5039682;28;20069;-51
2022/05/16 07:24:55;;;;;;;0.95;0.60;;;;;;;;;;5036684;28;20084;-50
2022/05/16 07:30:27;;;;;;;1.95;0.70;;;;;;;;;;5040875;28;20118;-47
2022/05/16 07:33:01;;;;;;;1.33;0.73;;;;;;;;;;5042691;28;20072;-52
2022/05/16 07:35:30;;;;;;;1.98;0.50;;;;;;;;;;5038626;28;20131;-55
2022/05/16 07:37:57;;;;;;;3.72;0.98;;;;;;;;;;5041387;28;20091;-55
2022/05/16 07:40:52;;;;;;;1.90;0.70;;;;;;;;;;5041755;28;20050;-51
2022/05/16 07:43:26;;;;;;;2.45;0.98;;;;;;;;;;5039115;28;20080;-54
2022/05/16 07:45:59;;;;;;;4.32;1.13;;;;;;;;;;5042337;28;20088;-54
2022/05/16 07:48:26;;;;;;;3.47;1.15;;;;;;;;;;5042264;28;20073;-53
2022/05/16 07:50:52;;;;;;;3.88;1.00;;;;;;;;;;5039407;28;20088;-54
2022/05/16 07:53:25;;;;;;;1.80;0.70;;;;;;;;;;5042451;28;20084;-48
2022/05/16 07:55:53;;;;;;;1.38;0.80;;;;;;;;;;5041006;28;20037;-51
2022/05/16 07:58:21;;;;;;;2.75;0.90;;;;;;;;;;5039236;28;20060;-50
2022/05/16 08:00:54;;;;;;;7.55;0.82;;;;;;;;;;5036949;28;20073;-44
2022/05/16 08:03:21;;;;;;;2.47;1.00;;;;;;;;;;5040575;28;20045;-49
2022/05/16 08:05:48;;;;;;;1.98;1.13;;;;;;;;;;5042149;28;20094;-46
2022/05/16 08:11:09;;;;;;;1.80;0.75;;;;;;;;;;5038268;28;20484;-47
2022/05/16 08:13:43;;;;;;;2.25;0.88;;;;;;;;;;5039812;28;20120;-48
2022/05/16 08:16:10;;;;;;;2.08;0.80;;;;;;;;;;5036461;28;20080;-46
2022/05/16 08:18:36;;;;;;;4.45;1.00;;;;;;;;;;5028674;28;20557;-49
2022/05/16 08:21:23;;;;;;;4.03;0.93;;;;;;;;;;5040784;28;20058;-49
2022/05/16 08:23:56;;;;;;;2.20;1.05;;;;;;;;;;5037674;28;20122;-49
2022/05/16 08:26:29;;;;;;;1.33;0.77;;;;;;;;;;5037202;28;20045;-50
2022/05/16 08:28:56;;;;;;;2.53;1.08;;;;;;;;;;5038837;28;20079;-48
2022/05/16 08:31:28;;;;;;;2.72;1.20;;;;;;;;;;5041865;28;20430;-57
2022/05/16 08:34:02;;;;;;;1.45;0.85;;;;;;;;;;5037994;28;20060;-56
2022/05/16 08:42:09;;;;;;;1.67;0.90;;;;;;;;;;5036908;28;20045;-56
2022/05/16 08:44:57;;;;;;;3.63;1.02;;;;;;;;;;5044233;28;20079;-56
2022/05/16 08:47:29;;;;;;;3.80;1.10;;;;;;;;;;5033794;28;20076;-56
2022/05/16 08:50:07;;;;;;;4.72;0.82;;;;;;;;;;5036451;28;20103;-57
2022/05/16 08:52:33;;;;;;;5.57;1.08;;;;;;;;;;5037330;28;20122;-44
2022/05/16 08:55:06;;;;;;;1.85;0.95;;;;;;;;;;5039625;28;20049;-52
2022/05/16 08:57:41;;;;;;;2.15;1.08;;;;;;;;;;5034983;28;20048;-52
2022/05/16 09:00:32;;;;;;;4.85;1.38;;;;;;;;;;5037962;28;20055;-49
2022/05/16 09:03:06;;;;;;;3.10;1.25;;;;;;;;;;5037929;28;20522;-48
2022/05/16 09:05:37;;;;;;;4.13;0.93;;;;;;;;;;5038702;28;20092;-53
2022/05/16 09:08:05;;;;;;;1.75;0.80;;;;;;;;;;5036087;28;20500;-53
2022/05/16 09:10:45;;;;;;;3.55;1.00;;;;;;;;;;5038402;28;20045;-50
2022/05/16 09:13:29;;;;;;;2.55;0.98;;;;;;;;;;5038356;28;20049;-47
2022/05/16 09:16:14;;;;;;;1.80;0.73;;;;;;;;;;5037511;28;20080;-50
2022/05/16 09:18:50;;;;;;;3.55;0.80;;;;;;;;;;5038369;28;20055;-51
2022/05/16 09:21:46;;;;;;;2.80;0.95;;;;;;;;;;5035496;28;20080;-47
2022/05/16 09:24:35;;;;;;;1.63;1.05;;;;;;;;;;5041390;28;20053;-47
2022/05/16 09:27:08;;;;;;;1.88;0.80;;;;;;;;;;5038111;28;20081;-50
2022/05/16 09:29:41;;;;;;;1.63;0.65;;;;;;;;;;5036053;28;20080;-48
2022/05/16 09:32:23;;;;;;;6.60;0.90;;;;;;;;;;5037968;28;20136;-52
2022/05/16 09:34:56;;;;;;;4.18;1.17;;;;;;;;;;5035580;28;20116;-58
2022/05/16 09:37:23;;;;;;;1.85;0.50;;;;;;;;;;5037335;28;20131;-58
2022/05/16 09:39:50;;;;;;;0.90;0.70;;;;;;;;;;5040335;28;20104;-58
2022/05/16 09:42:33;;;;;;;1.10;0.85;;;;;;;;;;5035279;28;20312;-58
2022/05/16 09:45:02;;;;;;;2.40;0.80;;;;;;;;;;5040237;28;20042;-57
2022/05/16 09:47:37;;;;;;;2.25;0.80;;;;;;;;;;5037172;28;20053;-55
2022/05/16 09:50:06;;;;;;;1.15;0.40;;;;;;;;;;5040038;28;20084;-51
2022/05/16 09:52:38;;;;;;;1.33;0.60;;;;;;;;;;5037304;28;20087;-53
2022/05/16 09:55:26;;;;;;;1.60;0.50;;;;;;;;;;5037204;28;20084;-53
2022/05/16 09:58:11;;;;;;;2.30;1.08;;;;;;;;;;5038297;28;20046;-50
2022/05/16 10:00:45;;;;;;;0.50;0.50;;;;;;;;;;5040655;28;20081;-52
2022/05/16 10:03:20;;;;;;;0.82;0.50;;;;;;;;;;5037557;28;20168;-52
2022/05/16 10:05:54;;;;;;;1.33;0.63;;;;;;;;;;5037426;28;20049;-49
2022/05/16 10:08:26;;;;;;;1.13;0.65;;;;;;;;;;5037384;28;20049;-48
2022/05/16 10:10:53;;;;;;;1.17;0.40;;;;;;;;;;5039878;28;20103;-55
2022/05/16 10:13:26;;;;;;;2.95;0.50;;;;;;;;;;5036873;28;20084;-58
2022/05/16 10:15:54;;;;;;;1.65;0.73;;;;;;;;;;5036182;28;20080;-55
2022/05/16 10:18:22;;;;;;;0.55;0.30;;;;;;;;;;5038586;28;20089;-55
2022/05/16 10:21:09;;;;;;;1.38;0.40;;;;;;;;;;5035702;28;20049;-56
2022/05/16 10:23:44;;;;;;;2.10;0.50;;;;;;;;;;5032667;28;20049;-56
2022/05/16 10:26:20;;;;;;;0.73;0.70;;;;;;;;;;5036277;28;20077;-57
2022/05/16 10:28:58;;;;;;;0.47;0.45;;;;;;;;;;5040849;28;20088;-55
2022/05/16 10:34:23;;;;;;;0.40;0.40;;;;;;;;;;5036531;28;20049;-50
2022/05/16 10:36:58;;;;;;;0.50;0.45;;;;;;;;;;5035871;28;20085;-52
2022/05/16 10:39:27;;;;;;;0.38;0.30;;;;;;;;;;5038869;28;20095;-48
2022/05/16 10:42:00;;;;;;;2.60;0.50;;;;;;;;;;5037225;28;20083;-48
2022/05/16 10:44:59;;;;;;;2.90;0.88;;;;;;;;;;5037986;28;20477;-48
2022/05/16 10:47:28;;;;;;;2.67;0.60;;;;;;;;;;5037697;28;20323;-47
2022/05/16 10:50:16;;;;;;;1.20;0.50;;;;;;;;;;5038826;28;20056;-56
2022/05/16 10:52:45;;;;;;;0.90;0.43;;;;;;;;;;5036612;28;20550;-58
2022/05/16 10:55:18;;;;;;;1.35;0.30;;;;;;;;;;5041191;28;20041;-58
2022/05/16 10:57:53;;;;;;;2.40;0.50;;;;;;;;;;5034011;28;20103;-55
2022/05/16 11:00:34;;;;;;;0.57;0.45;;;;;;;;;;5038095;28;20088;-55
2022/05/16 11:03:15;;;;;;;1.08;0.40;;;;;;;;;;5039755;28;20080;-54
2022/05/16 11:06:04;;;;;;;0.95;0.50;;;;;;;;;;5038356;28;20045;-54
2022/05/16 11:08:46;;;;;;;1.13;0.50;;;;;;;;;;5034856;28;20054;-50
2022/05/16 11:11:38;;;;;;;3.22;0.60;;;;;;;;;;5035467;28;20095;-52
2022/05/16 11:14:24;;;;;;;0.32;0.32;;;;;;;;;;5036761;28;20088;-52
2022/05/16 11:17:05;;;;;;;0.68;0.30;;;;;;;;;;5038048;28;20053;-49
2022/05/16 11:19:49;;;;;;;2.63;0.63;;;;;;;;;;5026194;28;20053;-51
2022/05/16 11:22:35;;;;;;;2.78;0.50;;;;;;;;;;5038415;28;20066;-48
2022/05/16 11:25:16;;;;;;;0.85;0.45;;;;;;;;;;5036832;28;20127;-59
2022/05/16 11:27:57;;;;;;;4.85;0.57;;;;;;;;;;5037616;28;20558;-56
2022/05/16 11:30:23;;;;;;;0.32;0.30;;;;;;;;;;5040565;28;20096;-57
2022/05/16 11:33:09;;;;;;;0.80;0.50;;;;;;;;;;5040197;28;20453;-58
2022/05/16 11:35:46;;;;;;;0.80;0.75;;;;;;;;;;5037997;28;20057;-57
2022/05/16 11:38:19;;;;;;;0.63;0.40;;;;;;;;;;5041833;28;20089;-57
2022/05/16 11:40:50;;;;;;;0.43;0.32;;;;;;;;;;5037963;28;20049;-55
2022/05/16 11:43:28;;;;;;;1.38;0.30;;;;;;;;;;5038951;28;20077;-48
2022/05/16 11:46:21;;;;;;;0.88;0.52;;;;;;;;;;5039360;28;20108;-58
2022/05/16 11:49:07;;;;;;;0.43;0.43;;;;;;;;;;5037129;28;20052;-58
2022/05/16 11:52:12;;;;;;;1.00;0.20;;;;;;;;;;5026582;28;20055;-59
2022/05/16 11:54:41;;;;;;;0.30;0.30;;;;;;;;;;5036987;28;20080;-58
2022/05/16 12:03:06;;;;;;;0.75;0.22;;;;;;;;;;5038194;28;20091;-54
2022/05/16 12:05:40;;;;;;;0.22;0.22;;;;;;;;;;5039958;28;20057;-57
2022/05/16 12:08:13;;;;;;;0.73;0.30;;;;;;;;;;5037822;28;20075;-55
2022/05/16 12:11:09;;;;;;;1.00;0.40;;;;;;;;;;5034296;28;20073;-58
2022/05/16 12:14:02;;;;;;;0.60;0.30;;;;;;;;;;5039132;28;20354;-58
2022/05/16 12:16:32;;;;;;;2.67;0.73;;;;;;;;;;5031308;28;20084;-56
2022/05/16 12:19:13;;;;;;;0.47;0.30;;;;;;;;;;5038892;28;20055;-58
2022/05/16 12:21:47;;;;;;;2.42;0.50;;;;;;;;;;5037797;28;20049;-54
2022/05/16 12:24:30;;;;;;;1.63;0.45;;;;;;;;;;5034928;28;20485;-52
2022/05/16 12:27:02;;;;;;;0.30;0.30;;;;;;;;;;5037468;28;20084;-52
2022/05/16 12:29:51;;;;;;;0.55;0.30;;;;;;;;;;5038150;28;20127;-51
2022/05/16 12:32:21;;;;;;;1.23;0.40;;;;;;;;;;5039513;28;20049;-52
2022/05/16 12:34:58;;;;;;;2.13;0.40;;;;;;;;;;5036789;28;20512;-51
2022/05/16 12:37:31;;;;;;;0.40;0.40;;;;;;;;;;5039636;28;20045;-52
2022/05/16 12:40:16;;;;;;;1.60;0.30;;;;;;;;;;5037039;28;20050;-51
2022/05/16 12:42:50;;;;;;;0.68;0.50;;;;;;;;;;5042674;28;20057;-48
2022/05/16 12:45:50;;;;;;;0.85;0.52;;;;;;;;;;5037851;28;20669;-50
2022/05/16 12:48:41;;;;;;;0.73;0.35;;;;;;;;;;5037102;28;20080;-50
2022/05/16 12:51:35;;;;;;;0.50;0.40;;;;;;;;;;5039405;28;20120;-50
2022/05/16 12:54:20;;;;;;;1.48;0.38;;;;;;;;;;5038683;28;20084;-48
2022/05/16 12:56:55;;;;;;;1.17;0.60;;;;;;;;;;5041007;28;20594;-51
2022/05/16 12:59:33;;;;;;;2.67;0.45;;;;;;;;;;5036819;28;20482;-54
2022/05/16 13:02:12;;;;;;;0.45;0.40;;;;;;;;;;5041628;28;20053;-45
2022/05/16 13:04:39;;;;;;;0.47;0.35;;;;;;;;;;5038626;28;20049;-52
2022/05/16 13:07:11;;;;;;;1.95;0.40;;;;;;;;;;5040072;28;20103;-51
2022/05/16 13:09:50;;;;;;;0.68;0.47;;;;;;;;;;5038114;28;20053;-47
2022/05/16 13:12:35;;;;;;;2.17;0.63;;;;;;;;;;5037716;28;20246;-48
2022/05/16 13:15:24;;;;;;;1.27;0.50;;;;;;;;;;5038316;28;20049;-52
2022/05/16 13:17:53;;;;;;;1.08;0.60;;;;;;;;;;5040984;28;20056;-49
2022/05/16 13:20:45;;;;;;;0.40;0.40;;;;;;;;;;5036989;28;20053;-49
2022/05/16 13:23:19;;;;;;;3.30;1.00;;;;;;;;;;5039156;28;20084;-49
2022/05/16 13:31:42;;;;;;;0.55;0.50;;;;;;;;;;5033489;28;20504;-51
2022/05/16 13:34:10;;;;;;;2.63;0.60;;;;;;;;;;5037835;28;20072;-51
2022/05/16 13:36:46;;;;;;;1.30;0.80;;;;;;;;;;5040479;28;20072;-53
2022/05/16 13:39:13;;;;;;;0.40;0.40;;;;;;;;;;5029390;28;20053;-50
2022/05/16 13:41:40;;;;;;;2.85;0.60;;;;;;;;;;5038096;28;20508;-51
2022/05/16 13:44:14;;;;;;;3.40;0.77;;;;;;;;;;5032253;28;20080;-49
2022/05/16 13:46:40;;;;;;;0.63;0.60;;;;;;;;;;5037491;28;20134;-50
2022/05/16 13:49:10;;;;;;;1.23;0.68;;;;;;;;;;5036889;28;20045;-50
2022/05/16 13:51:48;;;;;;;1.55;0.85;;;;;;;;;;5037047;28;20055;-45
2022/05/16 13:54:16;;;;;;;0.63;0.45;;;;;;;;;;5037887;28;20092;-47
2022/05/16 13:56:49;;;;;;;0.95;0.55;;;;;;;;;;5036914;28;20044;-58
2022/05/16 13:59:24;;;;;;;1.02;0.77;;;;;;;;;;5034280;28;20057;-51
2022/05/16 14:01:51;;;;;;;0.88;0.50;;;;;;;;;;5037872;28;20076;-47
2022/05/16 14:04:20;;;;;;;0.80;0.70;;;;;;;;;;5037582;28;20049;-52
2022/05/16 14:06:54;;;;;;;2.42;0.60;;;;;;;;;;5041205;28;20566;-52
2022/05/16 14:09:20;;;;;;;;;;;;;;;;;;5037327;28;20064;-47
2022/05/16 14:11:48;;;;;;;2.55;0.70;;;;;;;;;;5035625;28;19960;-53
2022/05/16 14:14:26;;;;;;;1.27;0.80;;;;;;;;;;5038414;28;20071;-58
2022/05/16 14:16:55;;;;;;;1.25;0.68;;;;;;;;;;5041328;28;20099;-55
2022/05/16 14:19:44;;;;;;;1.05;0.60;;;;;;;;;;5034959;28;20474;-58
2022/05/16 14:22:32;;;;;;;1.35;0.55;;;;;;;;;;5033698;28;20111;-58
2022/05/16 14:25:14;;;;;;;3.85;0.70;;;;;;;;;;5034491;28;20091;-58
2022/05/16 14:27:43;;;;;;;1.02;0.68;;;;;;;;;;5039454;28;20088;-58
2022/05/16 14:30:19;;;;;;;1.02;0.70;;;;;;;;;;5038572;28;20103;-58
2022/05/16 14:33:14;;;;;;;1.85;0.70;;;;;;;;;;5040061;28;20045;-56
2022/05/16 14:36:08;;;;;;;1.33;0.63;;;;;;;;;;5037890;28;20390;-49
2022/05/16 14:38:40;;;;;;;1.73;0.80;;;;;;;;;;5034572;28;20054;-47
2022/05/16 14:41:16;;;;;;;5.63;0.80;;;;;;;;;;5037765;28;20064;-49
2022/05/16 14:43:53;;;;;;;1.45;0.77;;;;;;;;;;5036494;28;20092;-50
2022/05/16 14:46:50;;;;;;;2.20;0.75;;;;;;;;;;5035768;28;20053;-48
2022/05/16 14:49:21;;;;;;;2.03;0.90;;;;;;;;;;5036826;28;20101;-49
2022/05/16 14:51:55;;;;;;;4.82;0.90;;;;;;;;;;5035278;28;20110;-47
2022/05/16 14:54:21;;;;;;;1.08;0.65;;;;;;;;;;5039406;28;20089;-58
2022/05/16 14:56:48;;;;;;;3.83;0.57;;;;;;;;;;5036315;28;20053;-53
2022/05/16 14:59:22;;;;;;;2.13;0.88;;;;;;;;;;5036291;28;20056;-48
2022/05/16 15:04:39;;;;;;;0.40;0.32;;;;;;;;;;5039456;28;20467;-51
2022/05/16 15:07:07;;;;;;;2.50;0.60;;;;;;;;;;5041385;28;20129;-49
2022/05/16 15:09:34;;;;;;;0.90;0.60;;;;;;;;;;5040442;28;20065;-50
2022/05/16 15:12:08;;;;;;;1.50;0.63;;;;;;;;;;5039579;28;20049;-53
2022/05/16 15:14:36;;;;;;;1.55;0.93;;;;;;;;;;5039802;28;20057;-49
2022/05/16 15:17:06;;;;;;;1.17;0.52;;;;;;;;;;5040550;28;20049;-47
2022/05/16 15:19:39;;;;;;;1.50;0.70;;;;;;;;;;5039466;28;20053;-49
2022/05/16 15:22:17;;;;;;;2.63;0.90;;;;;;;;;;5042181;28;20049;-47
2022/05/16 15:24:56;;;;;;;1.10;0.60;;;;;;;;;;5042265;28;20077;-51
2022/05/16 15:27:23;;;;;;;2.30;1.05;;;;;;;;;;5039870;28;20056;-45
2022/05/16 15:29:57;;;;;;;0.63;0.50;;;;;;;;;;5041862;28;20076;-46
2022/05/16 15:32:24;;;;;;;3.45;0.60;;;;;;;;;;5039194;28;20521;-53
2022/05/16 15:34:50;;;;;;;1.67;0.70;;;;;;;;;;5038066;28;20559;-49
2022/05/16 15:37:24;;;;;;;0.95;0.60;;;;;;;;;;5037879;28;20319;-51
2022/05/16 15:39:53;;;;;;;0.93;0.55;;;;;;;;;;5039972;28;20052;-47
2022/05/16 15:42:21;;;;;;;1.10;1.00;;;;;;;;;;5038908;28;20049;-45
2022/05/16 15:44:54;;;;;;;1.55;0.88;;;;;;;;;;5037566;28;20056;-49
2022/05/16 15:47:21;;;;;;;;;;;;;;;;;;5043524;28;20115;-49
2022/05/16 15:49:48;;;;;;;1.05;0.70;;;;;;;;;;5038466;28;19921;-53
2022/05/16 15:52:22;;;;;;;1.08;0.60;;;;;;;;;;5038309;28;20105;-53
2022/05/16 15:54:49;;;;;;;1.45;0.90;;;;;;;;;;5041247;28;20140;-54
2022/05/16 15:57:15;;;;;;;2.80;0.98;;;;;;;;;;5039713;28;20053;-52
2022/05/16 15:59:48;;;;;;;0.98;0.60;;;;;;;;;;5039483;28;20445;-55
2022/05/16 16:02:17;;;;;;;1.90;0.63;;;;;;;;;;5042572;28;20073;-52